sensor_id;sensor_type;location;lat;lon;timestamp;temperature;humidity
70421;SHT31;57848;51.938;15.520;2022-08-05T00:00:18;24.72;50.25
70421;SHT31;57848;51.938;15.520;2022-08-05T00:02:44;24.68;50.26
70421;SHT31;57848;51.938;15.520;2022-08-05T00:05:10;24.63;50.48
70421;SHT31;57848;51.938;15.520;2022-08-05T00:07:35;24.63;50.56
70421;SHT31;57848;51.938;15.520;2022-08-05T00:10:01;24.56;50.72
70421;SHT31;57848;51.938;15.520;2022-08-05T00:12:26;24.52;50.87
70421;SHT31;57848;51.938;15.520;2022-08-05T00:14:52;24.52;50.92
70421;SHT31;57848;51.938;15.520;2022-08-05T00:17:17;24.49;50.92
70421;SHT31;57848;51.938;15.520;2022-08-05T00:19:42;24.45;51.06
70421;SHT31;57848;51.938;15.520;2022-08-05T00:22:08;24.41;51.10
70421;SHT31;57848;51.938;15.520;2022-08-05T00:24:33;24.43;51.02
70421;SHT31;57848;51.938;15.520;2022-08-05T00:26:59;24.39;51.22
70421;SHT31;57848;51.938;15.520;2022-08-05T00:29:25;24.33;51.44
70421;SHT31;57848;51.938;15.520;2022-08-05T00:31:51;24.33;51.41
70421;SHT31;57848;51.938;15.520;2022-08-05T00:34:16;24.28;51.71
70421;SHT31;57848;51.938;15.520;2022-08-05T00:36:41;24.28;51.67
70421;SHT31;57848;51.938;15.520;2022-08-05T00:39:07;24.22;51.76
70421;SHT31;57848;51.938;15.520;2022-08-05T00:41:34;24.15;52.00
70421;SHT31;57848;51.938;15.520;2022-08-05T00:43:59;24.10;52.20
70421;SHT31;57848;51.938;15.520;2022-08-05T00:46:25;24.08;52.28
70421;SHT31;57848;51.938;15.520;2022-08-05T00:48:51;24.05;52.49
70421;SHT31;57848;51.938;15.520;2022-08-05T00:51:17;23.96;52.70
70421;SHT31;57848;51.938;15.520;2022-08-05T00:53:43;23.97;52.71
70421;SHT31;57848;51.938;15.520;2022-08-05T00:56:08;23.91;52.91
70421;SHT31;57848;51.938;15.520;2022-08-05T00:58:34;23.84;53.05
70421;SHT31;57848;51.938;15.520;2022-08-05T01:00:59;23.82;53.10
70421;SHT31;57848;51.938;15.520;2022-08-05T01:03:25;23.81;53.20
70421;SHT31;57848;51.938;15.520;2022-08-05T01:05:51;23.75;53.44
70421;SHT31;57848;51.938;15.520;2022-08-05T01:08:17;23.73;53.40
70421;SHT31;57848;51.938;15.520;2022-08-05T01:10:46;23.69;53.53
70421;SHT31;57848;51.938;15.520;2022-08-05T01:13:20;23.70;53.54
70421;SHT31;57848;51.938;15.520;2022-08-05T01:15:52;23.66;53.57
70421;SHT31;57848;51.938;15.520;2022-08-05T01:18:25;23.59;53.76
70421;SHT31;57848;51.938;15.520;2022-08-05T01:21:15;23.61;53.75
70421;SHT31;57848;51.938;15.520;2022-08-05T01:27:21;23.49;54.02
70421;SHT31;57848;51.938;15.520;2022-08-05T01:29:53;23.47;54.09
70421;SHT31;57848;51.938;15.520;2022-08-05T01:32:22;23.47;53.98
70421;SHT31;57848;51.938;15.520;2022-08-05T01:35:14;23.45;54.07
70421;SHT31;57848;51.938;15.520;2022-08-05T01:37:48;23.40;54.17
70421;SHT31;57848;51.938;15.520;2022-08-05T01:40:16;23.36;54.30
70421;SHT31;57848;51.938;15.520;2022-08-05T01:42:44;23.36;54.32
70421;SHT31;57848;51.938;15.520;2022-08-05T01:45:12;23.34;54.29
70421;SHT31;57848;51.938;15.520;2022-08-05T01:47:39;23.29;54.50
70421;SHT31;57848;51.938;15.520;2022-08-05T01:50:11;23.27;54.44
70421;SHT31;57848;51.938;15.520;2022-08-05T01:52:37;23.22;54.56
70421;SHT31;57848;51.938;15.520;2022-08-05T01:55:08;23.18;54.67
70421;SHT31;57848;51.938;15.520;2022-08-05T01:57:39;23.15;54.78
70421;SHT31;57848;51.938;15.520;2022-08-05T02:00:06;23.12;54.82
70421;SHT31;57848;51.938;15.520;2022-08-05T02:02:36;23.13;54.81
70421;SHT31;57848;51.938;15.520;2022-08-05T02:05:06;23.11;54.91
70421;SHT31;57848;51.938;15.520;2022-08-05T02:07:33;23.06;54.97
70421;SHT31;57848;51.938;15.520;2022-08-05T02:09:59;23.06;55.08
70421;SHT31;57848;51.938;15.520;2022-08-05T02:12:37;22.94;55.29
70421;SHT31;57848;51.938;15.520;2022-08-05T02:15:09;22.95;55.26
70421;SHT31;57848;51.938;15.520;2022-08-05T02:17:48;22.87;55.50
70421;SHT31;57848;51.938;15.520;2022-08-05T02:20:19;22.92;55.41
70421;SHT31;57848;51.938;15.520;2022-08-05T02:22:47;22.82;55.59
70421;SHT31;57848;51.938;15.520;2022-08-05T02:25:18;22.79;55.77
70421;SHT31;57848;51.938;15.520;2022-08-05T02:27:47;22.79;55.79
70421;SHT31;57848;51.938;15.520;2022-08-05T02:30:15;22.78;55.83
70421;SHT31;57848;51.938;15.520;2022-08-05T02:32:42;22.75;55.91
70421;SHT31;57848;51.938;15.520;2022-08-05T02:35:15;22.71;56.02
70421;SHT31;57848;51.938;15.520;2022-08-05T02:37:44;22.69;56.16
70421;SHT31;57848;51.938;15.520;2022-08-05T02:40:10;22.64;56.34
70421;SHT31;57848;51.938;15.520;2022-08-05T02:42:37;22.58;56.42
70421;SHT31;57848;51.938;15.520;2022-08-05T02:45:04;22.50;56.79
70421;SHT31;57848;51.938;15.520;2022-08-05T02:47:32;22.54;56.72
70421;SHT31;57848;51.938;15.520;2022-08-05T02:49:59;22.52;56.75
70421;SHT31;57848;51.938;15.520;2022-08-05T02:52:25;22.48;57.04
70421;SHT31;57848;51.938;15.520;2022-08-05T02:54:52;22.45;57.05
70421;SHT31;57848;51.938;15.520;2022-08-05T02:57:19;22.45;57.13
70421;SHT31;57848;51.938;15.520;2022-08-05T02:59:46;22.45;57.20
70421;SHT31;57848;51.938;15.520;2022-08-05T03:02:13;22.34;57.46
70421;SHT31;57848;51.938;15.520;2022-08-05T03:04:40;22.36;57.47
70421;SHT31;57848;51.938;15.520;2022-08-05T03:07:07;22.37;57.41
70421;SHT31;57848;51.938;15.520;2022-08-05T03:09:33;22.30;57.67
70421;SHT31;57848;51.938;15.520;2022-08-05T03:11:58;22.27;57.75
70421;SHT31;57848;51.938;15.520;2022-08-05T03:14:23;22.29;57.85
70421;SHT31;57848;51.938;15.520;2022-08-05T03:16:49;22.25;57.94
70421;SHT31;57848;51.938;15.520;2022-08-05T03:19:14;22.27;57.97
70421;SHT31;57848;51.938;15.520;2022-08-05T03:21:39;22.24;58.03
70421;SHT31;57848;51.938;15.520;2022-08-05T03:24:05;22.21;58.19
70421;SHT31;57848;51.938;15.520;2022-08-05T03:26:31;22.16;58.45
70421;SHT31;57848;51.938;15.520;2022-08-05T03:28:56;22.13;58.59
70421;SHT31;57848;51.938;15.520;2022-08-05T03:31:23;22.10;58.69
70421;SHT31;57848;51.938;15.520;2022-08-05T03:33:50;22.09;58.72
70421;SHT31;57848;51.938;15.520;2022-08-05T03:36:15;22.06;58.97
70421;SHT31;57848;51.938;15.520;2022-08-05T03:38:41;22.04;59.19
70421;SHT31;57848;51.938;15.520;2022-08-05T03:41:07;21.96;59.37
70421;SHT31;57848;51.938;15.520;2022-08-05T03:43:32;21.92;59.52
70421;SHT31;57848;51.938;15.520;2022-08-05T03:45:57;21.88;59.73
70421;SHT31;57848;51.938;15.520;2022-08-05T03:48:23;21.90;59.69
70421;SHT31;57848;51.938;15.520;2022-08-05T03:51:02;21.83;59.90
70421;SHT31;57848;51.938;15.520;2022-08-05T03:53:33;21.85;60.00
70421;SHT31;57848;51.938;15.520;2022-08-05T03:56:06;21.82;60.02
70421;SHT31;57848;51.938;15.520;2022-08-05T03:58:36;21.86;59.91
70421;SHT31;57848;51.938;15.520;2022-08-05T04:01:06;21.78;60.12
70421;SHT31;57848;51.938;15.520;2022-08-05T04:03:33;21.83;60.07
70421;SHT31;57848;51.938;15.520;2022-08-05T04:06:03;21.83;60.09
70421;SHT31;57848;51.938;15.520;2022-08-05T04:08:29;21.83;59.99
70421;SHT31;57848;51.938;15.520;2022-08-05T04:10:58;21.88;59.96
70421;SHT31;57848;51.938;15.520;2022-08-05T04:13:25;21.90;59.94
70421;SHT31;57848;51.938;15.520;2022-08-05T04:15:51;21.90;59.83
70421;SHT31;57848;51.938;15.520;2022-08-05T04:18:16;21.96;59.73
70421;SHT31;57848;51.938;15.520;2022-08-05T04:20:41;21.97;59.57
70421;SHT31;57848;51.938;15.520;2022-08-05T04:23:08;22.00;59.64
70421;SHT31;57848;51.938;15.520;2022-08-05T04:25:34;22.02;59.63
70421;SHT31;57848;51.938;15.520;2022-08-05T04:27:59;22.00;59.77
70421;SHT31;57848;51.938;15.520;2022-08-05T04:30:26;22.03;59.87
70421;SHT31;57848;51.938;15.520;2022-08-05T04:32:51;21.99;59.99
70421;SHT31;57848;51.938;15.520;2022-08-05T04:35:16;22.04;59.83
70421;SHT31;57848;51.938;15.520;2022-08-05T04:37:42;22.09;59.79
70421;SHT31;57848;51.938;15.520;2022-08-05T04:40:08;22.12;59.73
70421;SHT31;57848;51.938;15.520;2022-08-05T04:42:33;22.06;60.04
70421;SHT31;57848;51.938;15.520;2022-08-05T04:44:58;22.12;59.87
70421;SHT31;57848;51.938;15.520;2022-08-05T04:47:24;22.17;59.87
70421;SHT31;57848;51.938;15.520;2022-08-05T04:49:49;22.17;59.87
70421;SHT31;57848;51.938;15.520;2022-08-05T04:52:15;22.20;59.77
70421;SHT31;57848;51.938;15.520;2022-08-05T04:54:40;22.21;59.81
70421;SHT31;57848;51.938;15.520;2022-08-05T04:57:05;22.24;59.84
70421;SHT31;57848;51.938;15.520;2022-08-05T04:59:31;22.24;59.87
70421;SHT31;57848;51.938;15.520;2022-08-05T05:01:56;22.30;59.87
70421;SHT31;57848;51.938;15.520;2022-08-05T05:04:22;22.37;59.83
70421;SHT31;57848;51.938;15.520;2022-08-05T05:06:48;22.39;59.80
70421;SHT31;57848;51.938;15.520;2022-08-05T05:09:13;22.43;59.89
70421;SHT31;57848;51.938;15.520;2022-08-05T05:11:39;22.48;59.74
70421;SHT31;57848;51.938;15.520;2022-08-05T05:14:04;22.52;59.46
70421;SHT31;57848;51.938;15.520;2022-08-05T05:16:30;22.60;59.52
70421;SHT31;57848;51.938;15.520;2022-08-05T05:18:56;22.65;59.11
70421;SHT31;57848;51.938;15.520;2022-08-05T05:21:21;22.68;59.07
70421;SHT31;57848;51.938;15.520;2022-08-05T05:23:46;22.71;58.72
70421;SHT31;57848;51.938;15.520;2022-08-05T05:26:11;22.79;58.78
70421;SHT31;57848;51.938;15.520;2022-08-05T05:28:37;22.76;58.69
70421;SHT31;57848;51.938;15.520;2022-08-05T05:31:02;22.85;58.81
70421;SHT31;57848;51.938;15.520;2022-08-05T05:33:27;22.92;58.85
70421;SHT31;57848;51.938;15.520;2022-08-05T05:35:53;23.01;58.61
70421;SHT31;57848;51.938;15.520;2022-08-05T05:38:18;23.08;58.55
70421;SHT31;57848;51.938;15.520;2022-08-05T05:40:44;23.15;57.79
70421;SHT31;57848;51.938;15.520;2022-08-05T05:43:09;23.09;57.91
70421;SHT31;57848;51.938;15.520;2022-08-05T05:45:35;23.20;57.60
70421;SHT31;57848;51.938;15.520;2022-08-05T05:48:00;23.26;57.79
70421;SHT31;57848;51.938;15.520;2022-08-05T05:50:26;23.38;57.18
70421;SHT31;57848;51.938;15.520;2022-08-05T05:52:51;23.45;57.03
70421;SHT31;57848;51.938;15.520;2022-08-05T05:55:17;23.56;56.77
70421;SHT31;57848;51.938;15.520;2022-08-05T05:57:45;23.59;56.83
70421;SHT31;57848;51.938;15.520;2022-08-05T06:00:16;23.66;56.03
70421;SHT31;57848;51.938;15.520;2022-08-05T06:02:42;23.80;55.87
70421;SHT31;57848;51.938;15.520;2022-08-05T06:05:11;23.97;55.62
70421;SHT31;57848;51.938;15.520;2022-08-05T06:07:37;23.98;55.47
70421;SHT31;57848;51.938;15.520;2022-08-05T06:10:04;24.15;54.70
70421;SHT31;57848;51.938;15.520;2022-08-05T06:12:30;24.21;54.64
70421;SHT31;57848;51.938;15.520;2022-08-05T06:14:55;24.26;53.93
70421;SHT31;57848;51.938;15.520;2022-08-05T06:17:21;24.35;53.84
70421;SHT31;57848;51.938;15.520;2022-08-05T06:19:46;24.51;53.04
70421;SHT31;57848;51.938;15.520;2022-08-05T06:22:11;24.59;52.65
70421;SHT31;57848;51.938;15.520;2022-08-05T06:24:41;24.72;52.19
70421;SHT31;57848;51.938;15.520;2022-08-05T06:27:07;24.80;52.64
70421;SHT31;57848;51.938;15.520;2022-08-05T06:29:32;24.96;51.84
70421;SHT31;57848;51.938;15.520;2022-08-05T06:31:57;25.09;51.33
70421;SHT31;57848;51.938;15.520;2022-08-05T06:34:23;25.10;51.68
70421;SHT31;57848;51.938;15.520;2022-08-05T06:36:48;25.28;51.69
70421;SHT31;57848;51.938;15.520;2022-08-05T06:39:14;25.30;51.66
70421;SHT31;57848;51.938;15.520;2022-08-05T06:41:39;25.34;50.41
70421;SHT31;57848;51.938;15.520;2022-08-05T06:44:04;25.52;49.72
70421;SHT31;57848;51.938;15.520;2022-08-05T06:46:30;25.65;49.84
70421;SHT31;57848;51.938;15.520;2022-08-05T06:48:55;25.64;49.72
70421;SHT31;57848;51.938;15.520;2022-08-05T06:51:21;25.68;48.75
70421;SHT31;57848;51.938;15.520;2022-08-05T06:53:46;25.71;49.27
70421;SHT31;57848;51.938;15.520;2022-08-05T06:56:12;25.82;48.88
70421;SHT31;57848;51.938;15.520;2022-08-05T06:58:37;25.90;49.23
70421;SHT31;57848;51.938;15.520;2022-08-05T07:01:04;26.05;47.28
70421;SHT31;57848;51.938;15.520;2022-08-05T07:03:30;26.08;48.22
70421;SHT31;57848;51.938;15.520;2022-08-05T07:05:57;26.19;48.16
70421;SHT31;57848;51.938;15.520;2022-08-05T07:08:22;26.33;47.53
70421;SHT31;57848;51.938;15.520;2022-08-05T07:10:48;26.43;46.71
70421;SHT31;57848;51.938;15.520;2022-08-05T07:13:14;26.51;46.62
70421;SHT31;57848;51.938;15.520;2022-08-05T07:15:58;26.61;46.32
70421;SHT31;57848;51.938;15.520;2022-08-05T07:18:42;26.67;46.89
70421;SHT31;57848;51.938;15.520;2022-08-05T07:21:07;26.78;46.56
70421;SHT31;57848;51.938;15.520;2022-08-05T07:23:33;26.98;46.01
70421;SHT31;57848;51.938;15.520;2022-08-05T07:25:58;27.01;45.94
70421;SHT31;57848;51.938;15.520;2022-08-05T07:28:25;27.06;45.77
70421;SHT31;57848;51.938;15.520;2022-08-05T07:30:50;27.08;46.43
70421;SHT31;57848;51.938;15.520;2022-08-05T07:33:15;27.25;45.17
70421;SHT31;57848;51.938;15.520;2022-08-05T07:35:41;27.28;45.51
70421;SHT31;57848;51.938;15.520;2022-08-05T07:38:06;27.42;44.78
70421;SHT31;57848;51.938;15.520;2022-08-05T07:40:32;27.39;45.59
70421;SHT31;57848;51.938;15.520;2022-08-05T07:42:57;27.47;45.55
70421;SHT31;57848;51.938;15.520;2022-08-05T07:45:23;27.70;44.99
70421;SHT31;57848;51.938;15.520;2022-08-05T07:47:48;27.65;44.75
70421;SHT31;57848;51.938;15.520;2022-08-05T07:50:13;27.73;45.03
70421;SHT31;57848;51.938;15.520;2022-08-05T07:52:42;27.77;44.85
70421;SHT31;57848;51.938;15.520;2022-08-05T07:55:09;27.93;44.28
70421;SHT31;57848;51.938;15.520;2022-08-05T07:57:35;27.89;45.37
70421;SHT31;57848;51.938;15.520;2022-08-05T08:00:00;28.11;44.29
70421;SHT31;57848;51.938;15.520;2022-08-05T08:02:27;28.15;44.35
70421;SHT31;57848;51.938;15.520;2022-08-05T08:04:53;28.31;44.36
70421;SHT31;57848;51.938;15.520;2022-08-05T08:07:19;28.40;44.47
70421;SHT31;57848;51.938;15.520;2022-08-05T08:09:45;28.52;44.27
70421;SHT31;57848;51.938;15.520;2022-08-05T08:12:10;28.75;41.81
70421;SHT31;57848;51.938;15.520;2022-08-05T08:14:38;28.82;42.14
70421;SHT31;57848;51.938;15.520;2022-08-05T08:17:04;28.93;42.03
70421;SHT31;57848;51.938;15.520;2022-08-05T08:19:35;29.12;41.95
70421;SHT31;57848;51.938;15.520;2022-08-05T08:22:01;29.26;41.48
70421;SHT31;57848;51.938;15.520;2022-08-05T08:24:26;29.29;41.43
70421;SHT31;57848;51.938;15.520;2022-08-05T08:26:51;29.33;41.62
70421;SHT31;57848;51.938;15.520;2022-08-05T08:29:16;29.35;40.87
70421;SHT31;57848;51.938;15.520;2022-08-05T08:31:42;29.57;39.70
70421;SHT31;57848;51.938;15.520;2022-08-05T08:34:07;29.71;40.44
70421;SHT31;57848;51.938;15.520;2022-08-05T08:36:32;29.94;38.85
70421;SHT31;57848;51.938;15.520;2022-08-05T08:38:58;30.02;39.63
70421;SHT31;57848;51.938;15.520;2022-08-05T08:41:25;30.23;39.72
70421;SHT31;57848;51.938;15.520;2022-08-05T08:43:51;30.21;39.34
70421;SHT31;57848;51.938;15.520;2022-08-05T08:46:19;30.15;38.76
70421;SHT31;57848;51.938;15.520;2022-08-05T08:48:45;30.23;39.21
70421;SHT31;57848;51.938;15.520;2022-08-05T08:51:12;30.42;38.48
70421;SHT31;57848;51.938;15.520;2022-08-05T08:53:38;30.37;38.97
70421;SHT31;57848;51.938;15.520;2022-08-05T08:56:05;30.40;38.10
70421;SHT31;57848;51.938;15.520;2022-08-05T08:58:30;30.59;38.59
70421;SHT31;57848;51.938;15.520;2022-08-05T09:00:56;30.66;37.69
70421;SHT31;57848;51.938;15.520;2022-08-05T09:03:22;30.86;38.49
70421;SHT31;57848;51.938;15.520;2022-08-05T09:05:48;30.97;37.06
70421;SHT31;57848;51.938;15.520;2022-08-05T09:08:13;31.14;36.37
70421;SHT31;57848;51.938;15.520;2022-08-05T09:10:40;31.25;36.16
70421;SHT31;57848;51.938;15.520;2022-08-05T09:13:06;31.32;36.24
70421;SHT31;57848;51.938;15.520;2022-08-05T09:15:31;31.41;35.56
70421;SHT31;57848;51.938;15.520;2022-08-05T09:17:57;31.53;34.94
70421;SHT31;57848;51.938;15.520;2022-08-05T09:20:23;31.49;34.80
70421;SHT31;57848;51.938;15.520;2022-08-05T09:25:31;31.65;34.37
70421;SHT31;57848;51.938;15.520;2022-08-05T09:28:08;31.78;35.05
70421;SHT31;57848;51.938;15.520;2022-08-05T09:30:34;31.86;34.17
70421;SHT31;57848;51.938;15.520;2022-08-05T09:33:02;31.92;34.29
70421;SHT31;57848;51.938;15.520;2022-08-05T09:35:27;31.92;34.25
70421;SHT31;57848;51.938;15.520;2022-08-05T09:37:54;32.00;33.80
70421;SHT31;57848;51.938;15.520;2022-08-05T09:40:37;32.03;34.44
70421;SHT31;57848;51.938;15.520;2022-08-05T09:43:06;32.12;33.93
70421;SHT31;57848;51.938;15.520;2022-08-05T09:45:41;32.16;34.38
70421;SHT31;57848;51.938;15.520;2022-08-05T09:48:29;32.23;33.70
70421;SHT31;57848;51.938;15.520;2022-08-05T09:50:57;32.31;33.37
70421;SHT31;57848;51.938;15.520;2022-08-05T09:53:23;32.37;33.10
70421;SHT31;57848;51.938;15.520;2022-08-05T09:55:54;32.40;33.22
70421;SHT31;57848;51.938;15.520;2022-08-05T09:58:20;32.37;33.22
70421;SHT31;57848;51.938;15.520;2022-08-05T10:00:54;32.31;32.92
70421;SHT31;57848;51.938;15.520;2022-08-05T10:03:20;32.41;32.80
70421;SHT31;57848;51.938;15.520;2022-08-05T10:05:45;32.61;32.29
70421;SHT31;57848;51.938;15.520;2022-08-05T10:08:11;32.79;31.91
70421;SHT31;57848;51.938;15.520;2022-08-05T10:13:07;32.78;31.26
70421;SHT31;57848;51.938;15.520;2022-08-05T10:15:37;32.94;31.02
70421;SHT31;57848;51.938;15.520;2022-08-05T10:18:05;33.04;30.67
70421;SHT31;57848;51.938;15.520;2022-08-05T10:20:32;33.16;31.73
70421;SHT31;57848;51.938;15.520;2022-08-05T10:22:59;33.50;30.73
70421;SHT31;57848;51.938;15.520;2022-08-05T10:25:25;33.67;30.08
70421;SHT31;57848;51.938;15.520;2022-08-05T10:27:51;34.56;29.85
70421;SHT31;57848;51.938;15.520;2022-08-05T10:30:18;35.09;28.81
70421;SHT31;57848;51.938;15.520;2022-08-05T10:32:44;35.39;28.13
70421;SHT31;57848;51.938;15.520;2022-08-05T10:35:10;36.29;27.31
70421;SHT31;57848;51.938;15.520;2022-08-05T10:37:35;37.18;26.77
70421;SHT31;57848;51.938;15.520;2022-08-05T10:40:03;38.16;25.92
70421;SHT31;57848;51.938;15.520;2022-08-05T10:42:32;38.91;24.56
70421;SHT31;57848;51.938;15.520;2022-08-05T10:45:02;38.98;25.16
70421;SHT31;57848;51.938;15.520;2022-08-05T10:47:33;39.35;23.99
70421;SHT31;57848;51.938;15.520;2022-08-05T10:52:44;39.88;23.25
70421;SHT31;57848;51.938;15.520;2022-08-05T10:55:17;40.52;22.04
70421;SHT31;57848;51.938;15.520;2022-08-05T10:57:43;40.48;22.64
70421;SHT31;57848;51.938;15.520;2022-08-05T11:00:17;40.47;22.22
70421;SHT31;57848;51.938;15.520;2022-08-05T11:03:12;40.48;22.04
70421;SHT31;57848;51.938;15.520;2022-08-05T11:05:39;40.17;22.39
70421;SHT31;57848;51.938;15.520;2022-08-05T11:08:07;40.74;21.74
70421;SHT31;57848;51.938;15.520;2022-08-05T11:10:34;41.03;21.92
70421;SHT31;57848;51.938;15.520;2022-08-05T11:13:04;41.42;21.49
70421;SHT31;57848;51.938;15.520;2022-08-05T11:15:35;41.56;21.44
70421;SHT31;57848;51.938;15.520;2022-08-05T11:18:27;41.54;21.24
70421;SHT31;57848;51.938;15.520;2022-08-05T11:20:53;42.25;20.91
70421;SHT31;57848;51.938;15.520;2022-08-05T11:23:31;42.49;20.84
70421;SHT31;57848;51.938;15.520;2022-08-05T11:26:10;43.07;20.50
70421;SHT31;57848;51.938;15.520;2022-08-05T11:28:37;43.09;20.12
70421;SHT31;57848;51.938;15.520;2022-08-05T11:33:36;43.23;20.06
70421;SHT31;57848;51.938;15.520;2022-08-05T11:41:06;43.41;19.96
70421;SHT31;57848;51.938;15.520;2022-08-05T11:43:32;43.38;20.26
70421;SHT31;57848;51.938;15.520;2022-08-05T11:45:58;43.85;20.40
70421;SHT31;57848;51.938;15.520;2022-08-05T11:48:25;44.52;20.04
70421;SHT31;57848;51.938;15.520;2022-08-05T11:50:52;43.99;20.43
70421;SHT31;57848;51.938;15.520;2022-08-05T11:53:19;43.91;20.29
70421;SHT31;57848;51.938;15.520;2022-08-05T11:55:59;44.63;19.89
70421;SHT31;57848;51.938;15.520;2022-08-05T11:58:39;43.53;20.60
70421;SHT31;57848;51.938;15.520;2022-08-05T12:01:10;42.84;21.12
70421;SHT31;57848;51.938;15.520;2022-08-05T12:03:46;43.60;20.73
70421;SHT31;57848;51.938;15.520;2022-08-05T12:06:14;43.17;21.02
70421;SHT31;57848;51.938;15.520;2022-08-05T12:08:46;43.53;21.07
70421;SHT31;57848;51.938;15.520;2022-08-05T12:11:17;44.56;20.33
70421;SHT31;57848;51.938;15.520;2022-08-05T12:13:59;44.70;19.95
70421;SHT31;57848;51.938;15.520;2022-08-05T12:16:27;44.94;19.66
70421;SHT31;57848;51.938;15.520;2022-08-05T12:18:54;44.96;19.54
70421;SHT31;57848;51.938;15.520;2022-08-05T12:21:33;45.37;19.32
70421;SHT31;57848;51.938;15.520;2022-08-05T12:24:13;45.03;19.57
70421;SHT31;57848;51.938;15.520;2022-08-05T12:26:41;45.33;19.54
70421;SHT31;57848;51.938;15.520;2022-08-05T12:29:15;45.57;19.29
70421;SHT31;57848;51.938;15.520;2022-08-05T12:31:46;45.71;18.98
70421;SHT31;57848;51.938;15.520;2022-08-05T12:34:12;45.51;19.08
70421;SHT31;57848;51.938;15.520;2022-08-05T12:36:39;45.86;19.24
70421;SHT31;57848;51.938;15.520;2022-08-05T12:39:05;45.27;19.54
70421;SHT31;57848;51.938;15.520;2022-08-05T12:41:35;45.45;19.40
70421;SHT31;57848;51.938;15.520;2022-08-05T12:44:03;45.77;19.09
70421;SHT31;57848;51.938;15.520;2022-08-05T12:46:31;44.96;19.99
70421;SHT31;57848;51.938;15.520;2022-08-05T12:49:03;44.56;20.18
70421;SHT31;57848;51.938;15.520;2022-08-05T12:51:29;45.37;19.73
70421;SHT31;57848;51.938;15.520;2022-08-05T12:54:02;45.24;19.78
70421;SHT31;57848;51.938;15.520;2022-08-05T12:56:29;45.15;19.75
70421;SHT31;57848;51.938;15.520;2022-08-05T12:59:14;45.52;19.72
70421;SHT31;57848;51.938;15.520;2022-08-05T13:01:42;46.08;19.72
70421;SHT31;57848;51.938;15.520;2022-08-05T13:04:09;45.85;19.80
70421;SHT31;57848;51.938;15.520;2022-08-05T13:06:41;45.90;20.03
70421;SHT31;57848;51.938;15.520;2022-08-05T13:09:09;46.43;19.94
70421;SHT31;57848;51.938;15.520;2022-08-05T13:11:38;45.67;20.23
70421;SHT31;57848;51.938;15.520;2022-08-05T13:14:18;45.95;20.48
70421;SHT31;57848;51.938;15.520;2022-08-05T13:16:52;45.86;20.47
70421;SHT31;57848;51.938;15.520;2022-08-05T13:19:20;45.59;20.42
70421;SHT31;57848;51.938;15.520;2022-08-05T13:21:47;45.75;20.05
70421;SHT31;57848;51.938;15.520;2022-08-05T13:24:13;44.66;21.06
70421;SHT31;57848;51.938;15.520;2022-08-05T13:26:38;43.78;21.83
70421;SHT31;57848;51.938;15.520;2022-08-05T13:29:04;43.57;21.85
70421;SHT31;57848;51.938;15.520;2022-08-05T13:31:29;43.91;21.47
70421;SHT31;57848;51.938;15.520;2022-08-05T13:33:54;44.32;21.12
70421;SHT31;57848;51.938;15.520;2022-08-05T13:36:20;44.36;20.77
70421;SHT31;57848;51.938;15.520;2022-08-05T13:38:45;44.13;21.55
70421;SHT31;57848;51.938;15.520;2022-08-05T13:41:10;44.32;21.20
70421;SHT31;57848;51.938;15.520;2022-08-05T13:43:36;43.75;21.77
70421;SHT31;57848;51.938;15.520;2022-08-05T13:46:01;43.73;21.99
70421;SHT31;57848;51.938;15.520;2022-08-05T13:48:26;42.68;23.11
70421;SHT31;57848;51.938;15.520;2022-08-05T13:50:52;41.66;23.92
70421;SHT31;57848;51.938;15.520;2022-08-05T13:53:17;41.54;24.13
70421;SHT31;57848;51.938;15.520;2022-08-05T13:55:43;40.98;24.79
70421;SHT31;57848;51.938;15.520;2022-08-05T13:58:08;40.21;25.41
70421;SHT31;57848;51.938;15.520;2022-08-05T14:00:33;39.89;25.79
70421;SHT31;57848;51.938;15.520;2022-08-05T14:03:00;39.31;26.47
70421;SHT31;57848;51.938;15.520;2022-08-05T14:05:26;38.90;27.37
70421;SHT31;57848;51.938;15.520;2022-08-05T14:07:51;38.83;27.22
70421;SHT31;57848;51.938;15.520;2022-08-05T14:10:21;38.25;27.51
70421;SHT31;57848;51.938;15.520;2022-08-05T14:12:50;38.05;28.34
70421;SHT31;57848;51.938;15.520;2022-08-05T14:15:16;38.29;28.20
70421;SHT31;57848;51.938;15.520;2022-08-05T14:17:42;38.19;28.00
70421;SHT31;57848;51.938;15.520;2022-08-05T14:20:08;38.11;28.18
70421;SHT31;57848;51.938;15.520;2022-08-05T14:22:33;37.47;28.77
70421;SHT31;57848;51.938;15.520;2022-08-05T14:24:59;37.55;29.11
70421;SHT31;57848;51.938;15.520;2022-08-05T14:27:25;37.16;29.48
70421;SHT31;57848;51.938;15.520;2022-08-05T14:29:51;37.14;29.66
70421;SHT31;57848;51.938;15.520;2022-08-05T14:32:16;36.72;30.03
70421;SHT31;57848;51.938;15.520;2022-08-05T14:34:41;36.32;30.56
70421;SHT31;57848;51.938;15.520;2022-08-05T14:37:07;35.84;31.38
70421;SHT31;57848;51.938;15.520;2022-08-05T14:39:33;35.70;31.48
70421;SHT31;57848;51.938;15.520;2022-08-05T14:41:59;35.33;32.48
70421;SHT31;57848;51.938;15.520;2022-08-05T14:44:24;35.22;32.92
70421;SHT31;57848;51.938;15.520;2022-08-05T14:46:49;35.30;32.78
70421;SHT31;57848;51.938;15.520;2022-08-05T14:49:15;34.95;33.23
70421;SHT31;57848;51.938;15.520;2022-08-05T14:51:40;34.72;33.45
70421;SHT31;57848;51.938;15.520;2022-08-05T14:54:06;34.59;33.82
70421;SHT31;57848;51.938;15.520;2022-08-05T14:56:32;34.49;34.01
70421;SHT31;57848;51.938;15.520;2022-08-05T14:58:58;34.34;33.99
70421;SHT31;57848;51.938;15.520;2022-08-05T15:01:23;34.21;34.46
70421;SHT31;57848;51.938;15.520;2022-08-05T15:03:48;34.25;34.36
70421;SHT31;57848;51.938;15.520;2022-08-05T15:06:14;34.11;34.47
70421;SHT31;57848;51.938;15.520;2022-08-05T15:08:40;34.00;35.06
70421;SHT31;57848;51.938;15.520;2022-08-05T15:11:06;33.87;35.00
70421;SHT31;57848;51.938;15.520;2022-08-05T15:13:32;33.83;34.85
70421;SHT31;57848;51.938;15.520;2022-08-05T15:15:58;33.81;35.14
70421;SHT31;57848;51.938;15.520;2022-08-05T15:18:23;33.67;34.59
70421;SHT31;57848;51.938;15.520;2022-08-05T15:20:49;33.70;35.03
70421;SHT31;57848;51.938;15.520;2022-08-05T15:23:15;33.59;35.96
70421;SHT31;57848;51.938;15.520;2022-08-05T15:25:41;33.28;37.04
70421;SHT31;57848;51.938;15.520;2022-08-05T15:28:07;33.25;36.91
70421;SHT31;57848;51.938;15.520;2022-08-05T15:30:33;33.16;36.79
70421;SHT31;57848;51.938;15.520;2022-08-05T15:33:03;33.19;36.73
70421;SHT31;57848;51.938;15.520;2022-08-05T15:35:29;33.45;36.79